createdAt,value
2019-02-19T00:00:11.111Z,0
2019-02-19T00:01:11.089Z,0
2019-02-19T00:02:10.826Z,0
2019-02-19T00:03:11.054Z,0
2019-02-19T00:04:10.796Z,0
2019-02-19T00:05:11.018Z,0
2019-02-19T00:06:11.017Z,0
2019-02-19T00:07:10.753Z,0
2019-02-19T00:08:10.974Z,0
2019-02-19T00:09:10.957Z,0
2019-02-19T00:10:10.689Z,0
2019-02-19T00:11:10.953Z,0
2019-02-19T00:12:10.900Z,0
2019-02-19T00:13:10.879Z,0
2019-02-19T00:14:10.890Z,0
2019-02-19T00:15:15.608Z,0
2019-02-19T00:16:10.867Z,0
2019-02-19T00:17:10.825Z,0
2019-02-19T00:18:10.308Z,0
2019-02-19T00:19:10.792Z,0
2019-02-19T00:20:10.770Z,0
2019-02-19T00:21:10.799Z,0
2019-02-19T00:22:10.732Z,0
2019-02-19T00:23:10.473Z,0
2019-02-19T00:24:10.710Z,0
2019-02-19T00:25:10.699Z,0
2019-02-19T00:26:10.667Z,0
2019-02-19T00:27:10.650Z,0
2019-02-19T00:28:10.388Z,0
2019-02-19T00:29:10.616Z,0
2019-02-19T00:30:10.630Z,0
2019-02-19T00:31:10.634Z,0
2019-02-19T00:32:10.588Z,0
2019-02-19T00:33:10.308Z,0
2019-02-19T00:34:10.548Z,0
2019-02-19T00:35:10.510Z,0
2019-02-19T00:36:12.072Z,0
2019-02-19T00:37:10.483Z,0
2019-02-19T00:38:10.949Z,0
2019-02-19T00:39:10.449Z,0
2019-02-19T00:40:10.430Z,0
2019-02-19T00:41:10.412Z,0
2019-02-19T00:42:10.413Z,0
2019-02-19T00:43:10.144Z,0
2019-02-19T00:44:10.363Z,0
2019-02-19T00:45:16.422Z,0
2019-02-19T00:46:10.328Z,0
2019-02-19T00:47:10.063Z,0
2019-02-19T00:48:10.296Z,0
2019-02-19T00:49:10.283Z,0
2019-02-19T00:50:10.288Z,0
2019-02-19T00:51:10.235Z,0
2019-02-19T00:52:10.217Z,0
2019-02-19T00:53:09.967Z,0
2019-02-19T00:54:09.697Z,0
2019-02-19T00:55:09.927Z,0
2019-02-19T00:56:10.159Z,0
2019-02-19T00:57:10.160Z,0
2019-02-19T00:58:10.123Z,0
2019-02-19T00:59:10.108Z,0
2019-02-19T01:00:10.097Z,0
2019-02-19T01:01:09.827Z,0
2019-02-19T01:02:10.060Z,0
2019-02-19T01:03:10.033Z,0
2019-02-19T01:04:10.020Z,0
2019-02-19T01:05:10.009Z,0
2019-02-19T01:06:09.742Z,0
2019-02-19T01:07:09.974Z,0
2019-02-19T01:08:09.950Z,0
2019-02-19T01:09:09.692Z,0
2019-02-19T01:10:09.931Z,0
2019-02-19T01:11:09.653Z,0
2019-02-19T01:12:09.894Z,0
2019-02-19T01:13:09.866Z,0
2019-02-19T01:14:09.866Z,0
2019-02-19T01:15:09.836Z,0
2019-02-19T01:16:10.689Z,0
2019-02-19T01:17:09.803Z,0
2019-02-19T01:18:09.547Z,0
2019-02-19T01:19:09.774Z,0
2019-02-19T01:20:09.778Z,0
2019-02-19T01:21:09.503Z,0
2019-02-19T01:22:09.464Z,0
2019-02-19T01:23:09.705Z,0
2019-02-19T01:24:09.689Z,0
2019-02-19T01:25:09.704Z,0
2019-02-19T01:26:09.411Z,0
2019-02-19T01:27:09.409Z,0
2019-02-19T01:28:09.395Z,0
2019-02-19T01:29:09.601Z,0
2019-02-19T01:30:09.341Z,0
2019-02-19T01:31:09.564Z,0
2019-02-19T01:32:09.551Z,0
2019-02-19T01:33:09.287Z,0
2019-02-19T01:34:09.522Z,0
2019-02-19T01:35:09.494Z,0
2019-02-19T01:36:09.236Z,0
2019-02-19T01:37:09.466Z,0
2019-02-19T01:38:09.206Z,0
2019-02-19T01:39:09.446Z,0
2019-02-19T01:40:09.420Z,0
2019-02-19T01:41:09.406Z,0
2019-02-19T01:42:09.378Z,0
2019-02-19T01:43:09.378Z,0
2019-02-19T01:44:09.342Z,0
2019-02-19T01:45:09.342Z,0
2019-02-19T01:46:09.315Z,0
2019-02-19T01:47:09.313Z,0
2019-02-19T01:48:09.279Z,0
2019-02-19T01:49:09.263Z,0
2019-02-19T01:50:09.249Z,0
2019-02-19T01:51:08.977Z,0
2019-02-19T01:52:09.206Z,0
2019-02-19T01:53:09.200Z,0
2019-02-19T01:54:09.180Z,0
2019-02-19T01:55:09.076Z,0
2019-02-19T01:56:09.198Z,0
2019-02-19T01:57:09.124Z,0
2019-02-19T01:58:09.119Z,0
2019-02-19T01:59:09.094Z,0
2019-02-19T02:00:09.085Z,0
2019-02-19T02:01:09.085Z,0
2019-02-19T02:02:09.051Z,0
2019-02-19T02:03:09.032Z,0
2019-02-19T02:04:09.027Z,0
2019-02-19T02:05:09.007Z,0
2019-02-19T02:06:08.978Z,0
2019-02-19T02:07:09.395Z,0
2019-02-19T02:08:08.950Z,0
2019-02-19T02:09:08.923Z,0
2019-02-19T02:10:08.908Z,0
2019-02-19T02:11:08.901Z,0
2019-02-19T02:12:08.887Z,0
2019-02-19T02:13:08.864Z,0
2019-02-19T02:14:08.885Z,0
2019-02-19T02:15:09.080Z,0
2019-02-19T02:16:08.819Z,0
2019-02-19T02:17:08.554Z,0
2019-02-19T02:18:08.775Z,0
2019-02-19T02:19:08.776Z,0
2019-02-19T02:20:08.508Z,0
2019-02-19T02:21:08.481Z,0
2019-02-19T02:22:08.476Z,0
2019-02-19T02:23:08.700Z,0
2019-02-19T02:24:08.447Z,0
2019-02-19T02:25:08.663Z,0
2019-02-19T02:26:08.654Z,0
2019-02-19T02:27:08.644Z,0
2019-02-19T02:28:08.616Z,0
2019-02-19T02:29:08.369Z,0
2019-02-19T02:30:08.679Z,0
2019-02-19T02:31:08.578Z,0
2019-02-19T02:32:08.577Z,0
2019-02-19T02:33:08.567Z,0
2019-02-19T02:34:08.540Z,0
2019-02-19T02:35:11.074Z,0
2019-02-19T02:36:08.276Z,0
2019-02-19T02:37:08.515Z,0
2019-02-19T02:38:08.217Z,0
2019-02-19T02:39:08.445Z,0
2019-02-19T02:40:08.436Z,0
2019-02-19T02:41:08.454Z,0
2019-02-19T02:42:08.424Z,0
2019-02-19T02:43:08.436Z,0
2019-02-19T02:44:08.365Z,0
2019-02-19T02:45:08.111Z,0
2019-02-19T02:46:08.355Z,0
2019-02-19T02:47:08.346Z,0
2019-02-19T02:48:08.320Z,0
2019-02-19T02:49:08.292Z,0
2019-02-19T02:50:08.300Z,0
2019-02-19T02:51:08.266Z,0
2019-02-19T02:52:08.250Z,0
2019-02-19T02:53:08.229Z,0
2019-02-19T02:54:07.973Z,0
2019-02-19T02:55:08.232Z,0
2019-02-19T02:56:08.259Z,0
2019-02-19T02:57:08.173Z,0
2019-02-19T02:58:08.142Z,0
2019-02-19T02:59:08.160Z,0
2019-02-19T03:00:07.884Z,0
2019-02-19T03:01:08.141Z,0
2019-02-19T03:02:08.100Z,0
2019-02-19T03:03:08.100Z,0
2019-02-19T03:04:08.052Z,0
2019-02-19T03:05:08.044Z,0
2019-02-19T03:06:07.783Z,0
2019-02-19T03:07:07.759Z,0
2019-02-19T03:08:07.985Z,0
2019-02-19T03:09:07.973Z,0
2019-02-19T03:10:07.959Z,0
2019-02-19T03:11:07.940Z,0
2019-02-19T03:12:07.949Z,0
2019-02-19T03:13:08.031Z,0
2019-02-19T03:14:07.896Z,0
2019-02-19T03:15:07.888Z,0
2019-02-19T03:16:09.890Z,0
2019-02-19T03:17:07.612Z,0
2019-02-19T03:18:07.847Z,0
2019-02-19T03:19:07.829Z,0
2019-02-19T03:20:07.313Z,0
2019-02-19T03:21:07.788Z,0
2019-02-19T03:22:07.823Z,0
2019-02-19T03:23:07.795Z,0
2019-02-19T03:24:07.771Z,0
2019-02-19T03:25:07.768Z,0
2019-02-19T03:26:07.764Z,0
2019-02-19T03:27:07.441Z,0
2019-02-19T03:28:07.666Z,0
2019-02-19T03:29:07.653Z,0
2019-02-19T03:30:07.419Z,0
2019-02-19T03:31:07.632Z,0
2019-02-19T03:32:07.668Z,0
2019-02-19T03:33:07.651Z,0
2019-02-19T03:34:07.612Z,0
2019-02-19T03:35:07.361Z,0
2019-02-19T03:36:07.455Z,0
2019-02-19T03:37:07.533Z,0
2019-02-19T03:38:07.505Z,0
2019-02-19T03:39:07.514Z,0
2019-02-19T03:40:07.848Z,0
2019-02-19T03:41:07.461Z,0
2019-02-19T03:42:07.447Z,0
2019-02-19T03:43:07.191Z,0
2019-02-19T03:44:07.173Z,0
2019-02-19T03:45:07.505Z,0
2019-02-19T03:46:16.480Z,0
2019-02-19T03:47:07.365Z,0
2019-02-19T03:48:07.348Z,0
2019-02-19T03:49:07.087Z,0
2019-02-19T03:50:07.312Z,0
2019-02-19T03:51:07.303Z,0
2019-02-19T03:52:07.318Z,0
2019-02-19T03:53:07.260Z,0
2019-02-19T03:54:07.250Z,0
2019-02-19T03:55:07.445Z,0
2019-02-19T03:56:07.287Z,0
2019-02-19T03:57:07.212Z,0
2019-02-19T03:58:07.184Z,0
2019-02-19T03:59:06.924Z,0
2019-02-19T04:00:07.178Z,0
2019-02-19T04:01:07.137Z,0
2019-02-19T04:02:06.870Z,0
2019-02-19T04:03:06.865Z,0
2019-02-19T04:04:07.097Z,0
2019-02-19T04:05:06.833Z,0
2019-02-19T04:06:07.068Z,0
2019-02-19T04:07:06.788Z,0
2019-02-19T04:08:07.023Z,0
2019-02-19T04:09:07.032Z,0
2019-02-19T04:10:06.993Z,0
2019-02-19T04:11:06.722Z,0
2019-02-19T04:12:06.967Z,0
2019-02-19T04:13:06.943Z,0
2019-02-19T04:14:06.716Z,0
2019-02-19T04:15:06.997Z,0
2019-02-19T04:16:06.904Z,0
2019-02-19T04:17:06.902Z,0
2019-02-19T04:18:06.877Z,0
2019-02-19T04:19:06.843Z,0
2019-02-19T04:20:06.847Z,0
2019-02-19T04:21:06.816Z,0
2019-02-19T04:22:06.801Z,0
2019-02-19T04:23:06.534Z,0
2019-02-19T04:24:06.791Z,0
2019-02-19T04:25:06.766Z,0
2019-02-19T04:26:06.394Z,0
2019-02-19T04:27:06.722Z,0
2019-02-19T04:28:06.499Z,0
2019-02-19T04:29:06.437Z,0
2019-02-19T04:30:06.665Z,0
2019-02-19T04:31:06.666Z,0
2019-02-19T04:32:06.632Z,0
2019-02-19T04:33:06.641Z,0
2019-02-19T04:34:06.354Z,0
2019-02-19T04:35:06.591Z,0
2019-02-19T04:36:06.570Z,0
2019-02-19T04:37:06.304Z,0
2019-02-19T04:38:06.572Z,0
2019-02-19T04:39:06.536Z,0
2019-02-19T04:40:06.575Z,0
2019-02-19T04:41:06.486Z,0
2019-02-19T04:42:06.480Z,0
2019-02-19T04:43:06.455Z,0
2019-02-19T04:44:06.194Z,0
2019-02-19T04:45:06.419Z,0
2019-02-19T04:46:06.429Z,0
2019-02-19T04:47:06.405Z,0
2019-02-19T04:48:06.154Z,0
2019-02-19T04:49:06.141Z,0
2019-02-19T04:50:06.362Z,0
2019-02-19T04:51:06.354Z,0
2019-02-19T04:52:06.315Z,0
2019-02-19T04:53:06.067Z,0
2019-02-19T04:54:06.044Z,0
2019-02-19T04:55:06.263Z,0
2019-02-19T04:56:06.001Z,0
2019-02-19T04:57:06.244Z,0
2019-02-19T04:58:06.218Z,0
2019-02-19T04:59:06.200Z,0
2019-02-19T05:00:05.944Z,0
2019-02-19T05:01:05.915Z,0
2019-02-19T05:02:06.146Z,0
2019-02-19T05:03:06.140Z,0
2019-02-19T05:04:06.112Z,0
2019-02-19T05:05:05.865Z,0
2019-02-19T05:06:06.096Z,0
2019-02-19T05:07:06.225Z,0
2019-02-19T05:08:06.067Z,0
2019-02-19T05:09:06.076Z,0
2019-02-19T05:10:06.033Z,0
2019-02-19T05:11:06.003Z,0
2019-02-19T05:12:05.999Z,0
2019-02-19T05:13:05.984Z,0
2019-02-19T05:14:05.960Z,0
2019-02-19T05:15:05.704Z,0
2019-02-19T05:16:05.928Z,0
2019-02-19T05:17:05.653Z,0
2019-02-19T05:18:05.399Z,0
2019-02-19T05:19:05.654Z,0
2019-02-19T05:20:05.865Z,0
2019-02-19T05:21:05.857Z,0
2019-02-19T05:22:05.982Z,0
2019-02-19T05:23:07.442Z,0
2019-02-19T05:24:05.806Z,0
2019-02-19T05:25:05.769Z,0
2019-02-19T05:26:05.770Z,0
2019-02-19T05:27:05.751Z,0
2019-02-19T05:28:05.757Z,0
2019-02-19T05:29:05.708Z,0
2019-02-19T05:30:05.727Z,0
2019-02-19T05:31:05.679Z,0
2019-02-19T05:32:05.684Z,0
2019-02-19T05:33:05.659Z,0
2019-02-19T05:34:05.417Z,0
2019-02-19T05:35:05.384Z,0
2019-02-19T05:36:05.607Z,0
2019-02-19T05:37:05.577Z,0
2019-02-19T05:38:05.577Z,0
2019-02-19T05:39:05.548Z,0
2019-02-19T05:40:05.547Z,0
2019-02-19T05:41:05.516Z,0
2019-02-19T05:42:05.500Z,0
2019-02-19T05:43:06.375Z,4
2019-02-19T05:44:05.477Z,4
2019-02-19T05:45:05.451Z,0
2019-02-19T05:46:05.434Z,4
2019-02-19T05:47:05.441Z,4
2019-02-19T05:48:07.682Z,4
2019-02-19T05:49:05.391Z,4
2019-02-19T05:50:05.404Z,4
2019-02-19T05:51:05.113Z,4
2019-02-19T05:52:05.339Z,4
2019-02-19T05:53:05.333Z,8
2019-02-19T05:54:05.328Z,8
2019-02-19T05:55:05.303Z,12
2019-02-19T05:56:05.025Z,16
2019-02-19T05:57:05.260Z,16
2019-02-19T05:58:05.395Z,20
2019-02-19T05:59:05.231Z,24
2019-02-19T06:00:05.224Z,28
2019-02-19T06:01:05.208Z,36
2019-02-19T06:02:05.178Z,44
2019-02-19T06:03:05.174Z,52
2019-02-19T06:04:05.146Z,56
2019-02-19T06:05:05.844Z,64
2019-02-19T06:06:05.110Z,80
2019-02-19T06:07:05.109Z,88
2019-02-19T06:08:05.087Z,100
2019-02-19T06:09:04.815Z,116
2019-02-19T06:10:04.994Z,128
2019-02-19T06:11:05.042Z,144
2019-02-19T06:12:04.523Z,160
2019-02-19T06:13:05.008Z,176
2019-02-19T06:14:04.749Z,196
2019-02-19T06:15:05.049Z,216
2019-02-19T06:16:04.968Z,232
2019-02-19T06:17:05.995Z,252
2019-02-19T06:18:04.676Z,276
2019-02-19T06:19:04.657Z,300
2019-02-19T06:20:05.091Z,324
2019-02-19T06:21:04.625Z,348
2019-02-19T06:22:04.865Z,376
2019-02-19T06:23:04.870Z,408
2019-02-19T06:24:04.831Z,440
2019-02-19T06:25:05.082Z,472
2019-02-19T06:26:04.811Z,504
2019-02-19T06:27:04.285Z,540
2019-02-19T06:28:04.803Z,572
2019-02-19T06:29:05.105Z,600
2019-02-19T06:30:04.730Z,632
2019-02-19T06:31:04.715Z,664
2019-02-19T06:32:04.701Z,696
2019-02-19T06:33:04.784Z,732
2019-02-19T06:34:04.469Z,776
2019-02-19T06:35:04.640Z,828
2019-02-19T06:36:04.129Z,876
2019-02-19T06:37:04.116Z,928
2019-02-19T06:38:04.600Z,980
2019-02-19T06:39:04.597Z,1016
2019-02-19T06:40:04.570Z,1052
2019-02-19T06:41:04.482Z,1084
2019-02-19T06:42:04.537Z,1120
2019-02-19T06:43:04.270Z,1152
2019-02-19T06:44:04.499Z,1176
2019-02-19T06:45:04.484Z,1196
2019-02-19T06:46:04.461Z,1212
2019-02-19T06:47:12.699Z,1244
2019-02-19T06:48:04.185Z,1264
2019-02-19T06:49:04.415Z,1292
2019-02-19T06:50:04.398Z,1332
2019-02-19T06:51:04.136Z,1368
2019-02-19T06:52:04.151Z,1404
2019-02-19T06:53:04.252Z,1432
2019-02-19T06:54:04.362Z,1468
2019-02-19T06:55:04.342Z,1496
2019-02-19T06:56:04.052Z,1508
2019-02-19T06:57:04.312Z,1508
2019-02-19T06:58:04.274Z,1532
2019-02-19T06:59:04.258Z,1560
2019-02-19T07:00:04.247Z,1604
2019-02-19T07:01:04.220Z,1644
2019-02-19T07:02:04.206Z,1664
2019-02-19T07:03:04.205Z,1656
2019-02-19T07:04:04.177Z,1656
2019-02-19T07:05:04.164Z,1664
2019-02-19T07:06:04.170Z,1684
2019-02-19T07:07:04.127Z,1684
2019-02-19T07:08:04.119Z,1672
2019-02-19T07:09:04.107Z,1668
2019-02-19T07:10:04.090Z,1692
2019-02-19T07:11:04.065Z,1748
2019-02-19T07:12:05.974Z,1760
2019-02-19T07:13:04.042Z,1780
2019-02-19T07:14:04.018Z,1820
2019-02-19T07:15:04.005Z,1868
2019-02-19T07:16:03.999Z,1908
2019-02-19T07:17:03.975Z,1964
2019-02-19T07:18:03.992Z,2028
2019-02-19T07:19:03.946Z,2076
2019-02-19T07:20:03.951Z,2124
2019-02-19T07:21:03.425Z,2172
2019-02-19T07:22:03.899Z,2220
2019-02-19T07:23:03.907Z,2284
2019-02-19T07:24:11.223Z,2420
2019-02-19T07:25:03.843Z,2484
2019-02-19T07:26:03.843Z,2552
2019-02-19T07:27:03.819Z,2596
2019-02-19T07:28:03.800Z,2620
2019-02-19T07:29:03.782Z,2680
2019-02-19T07:30:03.782Z,2736
2019-02-19T07:31:03.749Z,2792
2019-02-19T07:32:03.751Z,2836
2019-02-19T07:33:03.726Z,2900
2019-02-19T07:34:03.711Z,2948
2019-02-19T07:35:03.688Z,3044
2019-02-19T07:36:03.681Z,3060
2019-02-19T07:37:03.665Z,3080
2019-02-19T07:38:03.641Z,3236
2019-02-19T07:39:03.407Z,3300
2019-02-19T07:40:03.620Z,3340
2019-02-19T07:41:03.632Z,3340
2019-02-19T07:42:03.586Z,3368
2019-02-19T07:43:03.323Z,3452
2019-02-19T07:44:03.559Z,3628
2019-02-19T07:45:03.539Z,3680
2019-02-19T07:46:03.531Z,3736
2019-02-19T07:47:03.268Z,3796
2019-02-19T07:48:03.533Z,3892
2019-02-19T07:49:03.472Z,3956
2019-02-19T07:50:03.465Z,3992
2019-02-19T07:51:03.215Z,4052
2019-02-19T07:52:03.436Z,4144
2019-02-19T07:53:03.422Z,4208
2019-02-19T07:54:03.415Z,4244
2019-02-19T07:55:03.392Z,4328
2019-02-19T07:56:03.130Z,4384
2019-02-19T07:57:03.362Z,4440
2019-02-19T07:58:03.338Z,4496
2019-02-19T07:59:03.337Z,4552
2019-02-19T08:00:03.317Z,4540
2019-02-19T08:01:03.045Z,4572
2019-02-19T08:02:04.025Z,4684
2019-02-19T08:03:04.970Z,4756
2019-02-19T08:04:03.261Z,4756
2019-02-19T08:05:03.243Z,4764
2019-02-19T08:06:03.238Z,4748
2019-02-19T08:07:03.210Z,4728
2019-02-19T08:08:03.210Z,4708
2019-02-19T08:09:03.186Z,4672
2019-02-19T08:10:02.935Z,4640
2019-02-19T08:11:03.161Z,4612
2019-02-19T08:12:03.148Z,4632
2019-02-19T08:13:03.126Z,4640
2019-02-19T08:14:03.121Z,4692
2019-02-19T08:15:03.167Z,4752
2019-02-19T08:16:03.099Z,4748
2019-02-19T08:17:03.085Z,4772
2019-02-19T08:18:03.055Z,4848
2019-02-19T08:19:02.814Z,4872
2019-02-19T08:20:02.783Z,4932
2019-02-19T08:21:03.020Z,4964
2019-02-19T08:22:02.998Z,5004
2019-02-19T08:23:02.764Z,5032
2019-02-19T08:24:02.969Z,5160
2019-02-19T08:25:02.726Z,5232
2019-02-19T08:26:02.693Z,5324
2019-02-19T08:27:02.931Z,5504
2019-02-19T08:28:02.917Z,5612
2019-02-19T08:29:18.908Z,5688
2019-02-19T08:30:02.886Z,5712
2019-02-19T08:31:02.883Z,5740
2019-02-19T08:32:02.864Z,5840
2019-02-19T08:33:02.851Z,5820
2019-02-19T08:34:02.828Z,5808
2019-02-19T08:35:02.816Z,5840
2019-02-19T08:36:02.806Z,5996
2019-02-19T08:37:02.793Z,6032
2019-02-19T08:38:02.790Z,6092
2019-02-19T08:39:02.769Z,6284
2019-02-19T08:40:02.663Z,6448
2019-02-19T08:41:02.731Z,6532
2019-02-19T08:42:02.722Z,6568
2019-02-19T08:43:02.699Z,6508
2019-02-19T08:44:02.690Z,6508
2019-02-19T08:45:02.762Z,6540
2019-02-19T08:46:02.694Z,6568
2019-02-19T08:47:02.656Z,6596
2019-02-19T08:48:02.635Z,6532
2019-02-19T08:49:02.629Z,6528
2019-02-19T08:50:02.903Z,6528
2019-02-19T08:51:02.596Z,6476
2019-02-19T08:52:03.440Z,6436
2019-02-19T08:53:02.573Z,6460
2019-02-19T08:54:02.558Z,6492
2019-02-19T08:55:02.700Z,6456
2019-02-19T08:56:02.535Z,6332
2019-02-19T08:57:02.318Z,6344
2019-02-19T08:58:02.509Z,6280
2019-02-19T08:59:02.530Z,6292
2019-02-19T09:00:02.416Z,6364
2019-02-19T09:01:02.208Z,6428
2019-02-19T09:02:02.449Z,6444
2019-02-19T09:03:02.444Z,6548
2019-02-19T09:04:02.415Z,6780
2019-02-19T09:05:02.427Z,7044
2019-02-19T09:06:02.177Z,7212
2019-02-19T09:07:02.382Z,7500
2019-02-19T09:08:02.382Z,7760
2019-02-19T09:09:02.354Z,7968
2019-02-19T09:10:02.341Z,8004
2019-02-19T09:11:02.079Z,7940
2019-02-19T09:12:02.334Z,8032
2019-02-19T09:13:02.310Z,8124
2019-02-19T09:14:02.293Z,8304
2019-02-19T09:15:02.289Z,8448
2019-02-19T09:16:02.020Z,8508
2019-02-19T09:17:02.267Z,8496
2019-02-19T09:18:02.242Z,8428
2019-02-19T09:19:02.226Z,8356
2019-02-19T09:20:02.215Z,8320
2019-02-19T09:21:02.245Z,8236
2019-02-19T09:22:02.180Z,8272
2019-02-19T09:23:02.226Z,8280
2019-02-19T09:24:11.563Z,8348
2019-02-19T09:25:02.155Z,8388
2019-02-19T09:26:01.888Z,8716
2019-02-19T09:27:02.122Z,9020
2019-02-19T09:28:02.114Z,8324
2019-02-19T09:29:02.097Z,7568
2019-02-19T09:30:02.103Z,7556
2019-02-19T09:31:01.828Z,7900
2019-02-19T09:32:01.828Z,7384
2019-02-19T09:33:02.049Z,7276
2019-02-19T09:34:02.033Z,7048
2019-02-19T09:35:02.027Z,6692
2019-02-19T09:36:02.014Z,6360
2019-02-19T09:37:02.005Z,5824
2019-02-19T09:38:01.994Z,5796
2019-02-19T09:39:01.977Z,6316
2019-02-19T09:40:01.969Z,6780
2019-02-19T09:41:01.697Z,6704
2019-02-19T09:42:01.700Z,6088
2019-02-19T09:43:01.680Z,5508
2019-02-19T09:44:01.930Z,5068
2019-02-19T09:45:01.661Z,4268
2019-02-19T09:46:03.590Z,3812
2019-02-19T09:47:01.638Z,3872
2019-02-19T09:48:08.353Z,3988
2019-02-19T09:49:01.853Z,3916
2019-02-19T09:50:01.839Z,3720
2019-02-19T09:51:01.589Z,3520
2019-02-19T09:52:01.818Z,3228
2019-02-19T09:53:06.943Z,2976
2019-02-19T09:54:01.788Z,2804
2019-02-19T09:55:01.790Z,2772
2019-02-19T09:56:01.770Z,2756
2019-02-19T09:57:01.803Z,2944
2019-02-19T09:58:01.752Z,2860
2019-02-19T09:59:01.733Z,3008
2019-02-19T10:00:01.497Z,3532
2019-02-19T10:01:01.706Z,4308
2019-02-19T10:02:01.468Z,4728
2019-02-19T10:03:01.457Z,5284
2019-02-19T10:04:01.689Z,5192
2019-02-19T10:05:01.657Z,5128
2019-02-19T10:06:01.392Z,5456
2019-02-19T10:07:01.389Z,6228
2019-02-19T10:08:03.090Z,6408
2019-02-19T10:09:01.646Z,6584
2019-02-19T10:10:01.587Z,6736
2019-02-19T10:11:01.580Z,6884
2019-02-19T10:12:01.307Z,7104
2019-02-19T10:13:01.553Z,7768
2019-02-19T10:14:01.537Z,8136
2019-02-19T10:15:01.537Z,8352
2019-02-19T10:16:01.509Z,8592
2019-02-19T10:17:01.519Z,7908
2019-02-19T10:18:09.643Z,7204
2019-02-19T10:19:01.473Z,6880
2019-02-19T10:20:01.463Z,6608
2019-02-19T10:21:02.237Z,6416
2019-02-19T10:22:01.440Z,6456
2019-02-19T10:23:01.173Z,6132
2019-02-19T10:24:01.410Z,5420
2019-02-19T10:25:01.435Z,4828
2019-02-19T10:26:01.382Z,4640
2019-02-19T10:27:01.130Z,4632
2019-02-19T10:28:01.389Z,4264
2019-02-19T10:29:01.353Z,3756
2019-02-19T10:30:01.083Z,3720
2019-02-19T10:31:01.334Z,3816
2019-02-19T10:32:01.319Z,3604
2019-02-19T10:33:01.295Z,3536
2019-02-19T10:34:01.285Z,3712
2019-02-19T10:35:01.279Z,3948
2019-02-19T10:36:01.016Z,3992
2019-02-19T10:37:01.255Z,3928
2019-02-19T10:38:01.010Z,4068
2019-02-19T10:39:01.221Z,4284
2019-02-19T10:40:01.213Z,4204
2019-02-19T10:41:01.209Z,4124
2019-02-19T10:42:01.185Z,4080
2019-02-19T10:43:01.176Z,4340
2019-02-19T10:44:01.167Z,4524
2019-02-19T10:45:01.146Z,4768
2019-02-19T10:46:01.134Z,5224
2019-02-19T10:47:01.114Z,5920
2019-02-19T10:48:01.152Z,6220
2019-02-19T10:49:01.093Z,6236
2019-02-19T10:50:01.112Z,6472
2019-02-19T10:51:01.082Z,6540
2019-02-19T10:52:01.062Z,5828
2019-02-19T10:53:01.050Z,6100
2019-02-19T10:54:01.038Z,6656
2019-02-19T10:55:01.023Z,6316
2019-02-19T10:56:01.009Z,5848
2019-02-19T10:57:00.745Z,5376
2019-02-19T10:58:01.001Z,4380
2019-02-19T10:59:01.030Z,4192
2019-02-19T11:00:00.706Z,4316
2019-02-19T11:01:00.962Z,4956
2019-02-19T11:02:00.933Z,5824
2019-02-19T11:03:00.671Z,5964
2019-02-19T11:04:00.671Z,6840
2019-02-19T11:05:00.654Z,7520
2019-02-19T11:06:00.659Z,7244
2019-02-19T11:07:00.375Z,6244
2019-02-19T11:08:00.867Z,5264
2019-02-19T11:09:00.858Z,4324
2019-02-19T11:10:00.610Z,3676
2019-02-19T11:11:00.824Z,3372
2019-02-19T11:12:02.837Z,3240
2019-02-19T11:13:00.573Z,3428
2019-02-19T11:14:00.793Z,3612
2019-02-19T11:15:00.771Z,3480
2019-02-19T11:16:00.780Z,3352
2019-02-19T11:17:00.748Z,3324
2019-02-19T11:18:00.744Z,3408
2019-02-19T11:19:00.719Z,3372
2019-02-19T11:20:00.341Z,3132
2019-02-19T11:21:00.700Z,3152
2019-02-19T11:22:00.681Z,3152
2019-02-19T11:23:00.429Z,3016
2019-02-19T11:24:00.671Z,3276
2019-02-19T11:25:00.654Z,3292
2019-02-19T11:26:00.634Z,3460
2019-02-19T11:27:00.407Z,3968
2019-02-19T11:28:00.614Z,4448
2019-02-19T11:29:00.122Z,4312
2019-02-19T11:30:00.582Z,3588
2019-02-19T11:31:00.066Z,2952
2019-02-19T11:32:00.305Z,2684
2019-02-19T11:33:00.578Z,2356
2019-02-19T11:34:00.529Z,2172
2019-02-19T11:35:00.527Z,2264
2019-02-19T11:36:02.001Z,2396
2019-02-19T11:37:00.502Z,2364
2019-02-19T11:38:00.479Z,2384
2019-02-19T11:39:00.466Z,2672
2019-02-19T11:40:00.451Z,2696
2019-02-19T11:41:00.196Z,2260
2019-02-19T11:42:00.177Z,2016
2019-02-19T11:43:00.413Z,1936
2019-02-19T11:44:00.410Z,1816
2019-02-19T11:45:00.477Z,1752
2019-02-19T11:46:00.376Z,1656
2019-02-19T11:47:00.359Z,1728
2019-02-19T11:48:00.098Z,2068
2019-02-19T11:49:01.066Z,2488
2019-02-19T11:50:00.319Z,2968
2019-02-19T11:51:00.302Z,3280
2019-02-19T11:52:00.318Z,3168
2019-02-19T11:53:00.071Z,3108
2019-02-19T11:54:00.021Z,2952
2019-02-19T11:55:00.003Z,2672
2019-02-19T11:56:00.245Z,2652
2019-02-19T11:57:00.224Z,2400
2019-02-19T11:58:00.234Z,2080
2019-02-19T11:59:00.227Z,1992
2019-02-19T11:59:59.940Z,2024
2019-02-19T12:01:00.235Z,1980
2019-02-19T12:01:59.911Z,1908
2019-02-19T12:03:00.145Z,1832
2019-02-19T12:04:00.141Z,1896
2019-02-19T12:04:59.875Z,1884
2019-02-19T12:05:59.907Z,1928
2019-02-19T12:07:00.099Z,2028
2019-02-19T12:08:00.077Z,2156
2019-02-19T12:09:00.103Z,2216
2019-02-19T12:10:00.056Z,2088
2019-02-19T12:11:00.037Z,2044
2019-02-19T12:12:00.039Z,2496
2019-02-19T12:13:00.016Z,3112
2019-02-19T12:14:00.012Z,3372
2019-02-19T12:14:59.994Z,2952
2019-02-19T12:15:59.969Z,3668
2019-02-19T12:16:59.720Z,3220
2019-02-19T12:17:59.961Z,2488
2019-02-19T12:18:59.930Z,2132
2019-02-19T12:19:59.940Z,2016
2019-02-19T12:20:59.911Z,1928
2019-02-19T12:21:59.894Z,1816
2019-02-19T12:22:59.637Z,1560
2019-02-19T12:23:59.875Z,1400
2019-02-19T12:24:59.901Z,1252
2019-02-19T12:25:59.848Z,1240
2019-02-19T12:26:59.817Z,1224
2019-02-19T12:28:01.027Z,1284
2019-02-19T12:28:59.790Z,1380
2019-02-19T12:29:59.541Z,1400
2019-02-19T12:30:59.782Z,1404
2019-02-19T12:31:59.504Z,1364
2019-02-19T12:32:59.744Z,1436
2019-02-19T12:33:59.482Z,1540
2019-02-19T12:34:59.712Z,1536
2019-02-19T12:35:59.698Z,1168
2019-02-19T12:36:59.695Z,1012
2019-02-19T12:37:59.704Z,1068
2019-02-19T12:38:59.668Z,1076
2019-02-19T12:39:59.647Z,1108
2019-02-19T12:40:59.637Z,1252
2019-02-19T12:41:59.621Z,1328
2019-02-19T12:42:59.643Z,1328
2019-02-19T12:43:59.593Z,1304
2019-02-19T12:44:59.578Z,1256
2019-02-19T12:45:59.314Z,1328
2019-02-19T12:46:59.560Z,1400
2019-02-19T12:47:59.542Z,1472
2019-02-19T12:49:02.028Z,1448
2019-02-19T12:49:59.513Z,1472
2019-02-19T12:50:59.497Z,1512
2019-02-19T12:52:00.356Z,1492
2019-02-19T12:52:59.464Z,1512
2019-02-19T12:53:59.199Z,1408
2019-02-19T12:54:59.206Z,1332
2019-02-19T12:55:59.435Z,1336
2019-02-19T12:56:59.169Z,1384
2019-02-19T12:57:59.150Z,1488
2019-02-19T12:58:59.410Z,1544
2019-02-19T13:00:03.924Z,1540
2019-02-19T13:00:59.363Z,1704
2019-02-19T13:01:59.108Z,1716
2019-02-19T13:02:59.073Z,1672
2019-02-19T13:03:59.307Z,1580
2019-02-19T13:04:59.296Z,1476
2019-02-19T13:05:59.288Z,1388
2019-02-19T13:06:59.267Z,1456
2019-02-19T13:07:59.253Z,1448
2019-02-19T13:08:59.242Z,1456
2019-02-19T13:09:59.221Z,1512
2019-02-19T13:10:59.223Z,1484
2019-02-19T13:11:58.974Z,1460
2019-02-19T13:12:59.199Z,1344
2019-02-19T13:13:58.687Z,1248
2019-02-19T13:14:59.159Z,1344
2019-02-19T13:15:59.149Z,1376
2019-02-19T13:16:59.138Z,1300
2019-02-19T13:17:59.115Z,1408
2019-02-19T13:19:07.935Z,1624
2019-02-19T13:19:59.129Z,1556
2019-02-19T13:20:58.821Z,1632
2019-02-19T13:21:59.060Z,1820
2019-02-19T13:22:58.803Z,1748
2019-02-19T13:23:59.021Z,1784
2019-02-19T13:24:58.777Z,1668
2019-02-19T13:25:59.004Z,1600
2019-02-19T13:26:59.028Z,1712
2019-02-19T13:27:58.972Z,1700
2019-02-19T13:28:58.986Z,1696
2019-02-19T13:29:59.005Z,1836
2019-02-19T13:30:58.919Z,1996
2019-02-19T13:31:58.929Z,2196
2019-02-19T13:32:58.656Z,2200
2019-02-19T13:33:58.889Z,2240
2019-02-19T13:34:58.893Z,2028
2019-02-19T13:35:58.855Z,1912
2019-02-19T13:36:58.840Z,2248
2019-02-19T13:37:58.819Z,2232
2019-02-19T13:38:58.561Z,2152
2019-02-19T13:39:58.791Z,2324
2019-02-19T13:40:58.858Z,2548
2019-02-19T13:41:58.757Z,2740
2019-02-19T13:42:58.502Z,3020
2019-02-19T13:43:58.733Z,3604
2019-02-19T13:44:58.468Z,4552
2019-02-19T13:45:58.709Z,5372
2019-02-19T13:46:58.697Z,5952
2019-02-19T13:48:05.642Z,6284
2019-02-19T13:48:58.654Z,6468
2019-02-19T13:49:58.646Z,6504
2019-02-19T13:50:58.385Z,6312
2019-02-19T13:51:58.376Z,6072
2019-02-19T13:52:58.604Z,5832
2019-02-19T13:53:58.583Z,5464
2019-02-19T13:54:58.322Z,4772